Telegraph Creek, Canada
Current Conditions -  °F | °C
As of 10:00 AM on Saturday 20 Dec 2014 (Local Time) from CYDL Reporting Station
NA  
Wind Chill: -3°   Ceiling: NA
Heat Index: 10°   Visibility: 9mi
Dew Point:   Wind: 10mph
Humidity: 92%   Direction: 50°NE
Pressure: 29.16"   Gusts: NA
Location:  57.9°N, 131.15°W
Report Text: CYDL 201800Z AUTO 05009KT 9SM M12/M13 A2916 RMK CLD MISG SLP919
Loading
Personal Weather Stations






























Interactive Weather Map New forecast layout! Learn more

10-Day Weather Forecast

Advertisements
Track Severe Weather on mobile